Tanacross, AK (99776)

2:42 AM AKST on December 09, 2016 (GMT -0900)
Turks on the Tundra | | Change Station

Elev 1635 ft 63.34 °N, 142.99 °W | Updated 15 minutes ago

Partly Cloudy
Partly Cloudy
-7.2 °F
Feels Like -7 °F
N
1.0
Wind Variable Wind from SSE
Gusts 2.0 mph

Today
High -- | Low -- °F
--% Chance of Precip.
Yesterday
High -- | Low -- °F
Precip. -- in
Pressure 30.66 in
Visibility 9.0 miles
Clouds Mostly Cloudy 2000 ft
Overcast 2500 ft
Windchill -7 °F
Dew Point -11 °F
Humidity 85%
Rainfall 0.00 in
Snow Depth Not available.
10:01 AM 2:50 PM
Waxing Gibbous, 73% visible
METAR PAOR 091053Z 00000KT 9SM -SN BKN020 OVC025 M21/M23 A3044 RMK AO2 SLP383 PCPN VRY LGT T12061233
Pressure 30.66 in
Visibility 9.0 miles
Clouds Mostly Cloudy 2000 ft
Overcast 2500 ft
Windchill -7 °F
Dew Point -11 °F
Humidity 85%
Rainfall 0.00 in
Snow Depth Not available.
10:01 AM 2:50 PM
Waxing Gibbous, 73% visible
METAR PAOR 091053Z 00000KT 9SM -SN BKN020 OVC025 M21/M23 A3044 RMK AO2 SLP383 PCPN VRY LGT T12061233

10-Day Weather Forecast

Almanac

Astronomy

Dec. 09, 2016 Rise Set
Actual Time
Civil Twilight
Nautical Twilight
Astronomical Twilight
Moon
Length of Visible Light
Length of Day
Tomorrow will be .
, % of the Moon is Illuminated

Today's Extremes

State Highs State Lows

Community

WunderPhotos

Upload Photos

1,956,378 photos uploaded!

WunderBlog® & News

Nearby

Air Quality

  Air Quality AQ Index Pollutant
Not available.

Snow Depth

Station Depth Elevation

Earthquake Activity

City Distance Mag. Time & Date
Minimum magnitude displayed is 2.5.

Coastal Water Temperatures

Place Temperature

Stations

Nearby Weather Stations

Station Location Temp. Windchill Dew Point Humidity Wind Precip. Elev Updated Type
                   

Watches & Warnings

There are currently no watches in effect.